sensor_id;sensor_type;location;lat;lon;timestamp;P1;durP1;ratioP1;P2;durP2;ratioP2
8230;SDS011;4156;50.908;6.974;2024-03-22T00:01:54;17.47;;;12.00;;
8230;SDS011;4156;50.908;6.974;2024-03-22T00:04:20;19.67;;;12.40;;
8230;SDS011;4156;50.908;6.974;2024-03-22T00:06:47;17.17;;;11.37;;
8230;SDS011;4156;50.908;6.974;2024-03-22T00:09:13;18.63;;;12.80;;
8230;SDS011;4156;50.908;6.974;2024-03-22T00:11:40;20.67;;;12.50;;
8230;SDS011;4156;50.908;6.974;2024-03-22T00:14:06;19.77;;;12.10;;
8230;SDS011;4156;50.908;6.974;2024-03-22T00:16:32;17.40;;;11.50;;
8230;SDS011;4156;50.908;6.974;2024-03-22T00:18:58;17.77;;;11.07;;
8230;SDS011;4156;50.908;6.974;2024-03-22T00:21:24;19.40;;;12.40;;
8230;SDS011;4156;50.908;6.974;2024-03-22T00:23:51;18.57;;;12.23;;
8230;SDS011;4156;50.908;6.974;2024-03-22T00:26:17;18.97;;;11.97;;
8230;SDS011;4156;50.908;6.974;2024-03-22T00:28:43;20.00;;;12.47;;
8230;SDS011;4156;50.908;6.974;2024-03-22T00:31:09;20.10;;;12.20;;
8230;SDS011;4156;50.908;6.974;2024-03-22T00:33:35;14.90;;;10.37;;
8230;SDS011;4156;50.908;6.974;2024-03-22T00:36:01;17.63;;;11.27;;
8230;SDS011;4156;50.908;6.974;2024-03-22T00:38:27;16.97;;;11.80;;
8230;SDS011;4156;50.908;6.974;2024-03-22T00:40:53;17.57;;;11.97;;
8230;SDS011;4156;50.908;6.974;2024-03-22T00:43:22;16.07;;;11.37;;
8230;SDS011;4156;50.908;6.974;2024-03-22T00:45:48;14.57;;;10.70;;
8230;SDS011;4156;50.908;6.974;2024-03-22T00:48:14;16.73;;;11.30;;
8230;SDS011;4156;50.908;6.974;2024-03-22T00:50:40;15.53;;;11.10;;
8230;SDS011;4156;50.908;6.974;2024-03-22T00:53:06;17.97;;;11.40;;
8230;SDS011;4156;50.908;6.974;2024-03-22T00:55:33;17.47;;;12.17;;
8230;SDS011;4156;50.908;6.974;2024-03-22T00:57:59;16.83;;;12.10;;
8230;SDS011;4156;50.908;6.974;2024-03-22T01:00:25;16.83;;;12.23;;
8230;SDS011;4156;50.908;6.974;2024-03-22T01:02:51;15.83;;;11.00;;
8230;SDS011;4156;50.908;6.974;2024-03-22T01:05:17;14.97;;;10.77;;
8230;SDS011;4156;50.908;6.974;2024-03-22T01:07:43;16.77;;;12.27;;
8230;SDS011;4156;50.908;6.974;2024-03-22T01:10:12;15.23;;;11.73;;
8230;SDS011;4156;50.908;6.974;2024-03-22T01:12:38;15.03;;;10.77;;
8230;SDS011;4156;50.908;6.974;2024-03-22T01:15:05;13.53;;;10.67;;
8230;SDS011;4156;50.908;6.974;2024-03-22T01:17:32;16.60;;;11.60;;
8230;SDS011;4156;50.908;6.974;2024-03-22T01:19:58;14.70;;;10.23;;
8230;SDS011;4156;50.908;6.974;2024-03-22T01:22:24;13.50;;;9.57;;
8230;SDS011;4156;50.908;6.974;2024-03-22T01:24:50;16.90;;;10.53;;
8230;SDS011;4156;50.908;6.974;2024-03-22T01:27:16;13.90;;;9.80;;
8230;SDS011;4156;50.908;6.974;2024-03-22T01:29:42;16.17;;;11.17;;
8230;SDS011;4156;50.908;6.974;2024-03-22T01:32:08;15.30;;;10.77;;
8230;SDS011;4156;50.908;6.974;2024-03-22T01:34:35;13.33;;;10.00;;
8230;SDS011;4156;50.908;6.974;2024-03-22T01:37:00;16.27;;;11.67;;
8230;SDS011;4156;50.908;6.974;2024-03-22T01:39:27;15.80;;;11.23;;
8230;SDS011;4156;50.908;6.974;2024-03-22T01:41:53;20.93;;;11.60;;
8230;SDS011;4156;50.908;6.974;2024-03-22T01:44:26;16.00;;;10.40;;
8230;SDS011;4156;50.908;6.974;2024-03-22T01:46:52;18.47;;;11.00;;
8230;SDS011;4156;50.908;6.974;2024-03-22T01:49:18;15.60;;;10.60;;
8230;SDS011;4156;50.908;6.974;2024-03-22T01:51:44;16.10;;;10.93;;
8230;SDS011;4156;50.908;6.974;2024-03-22T01:54:10;14.40;;;10.17;;
8230;SDS011;4156;50.908;6.974;2024-03-22T01:56:37;12.77;;;9.50;;
8230;SDS011;4156;50.908;6.974;2024-03-22T01:59:04;14.57;;;10.10;;
8230;SDS011;4156;50.908;6.974;2024-03-22T02:01:30;15.23;;;11.07;;
8230;SDS011;4156;50.908;6.974;2024-03-22T02:03:56;15.53;;;11.53;;
8230;SDS011;4156;50.908;6.974;2024-03-22T02:06:22;14.97;;;10.13;;
8230;SDS011;4156;50.908;6.974;2024-03-22T02:08:48;13.43;;;10.33;;
8230;SDS011;4156;50.908;6.974;2024-03-22T02:11:14;18.00;;;11.13;;
8230;SDS011;4156;50.908;6.974;2024-03-22T02:13:40;15.83;;;10.20;;
8230;SDS011;4156;50.908;6.974;2024-03-22T02:16:08;16.33;;;11.60;;
8230;SDS011;4156;50.908;6.974;2024-03-22T02:18:33;16.33;;;11.97;;
8230;SDS011;4156;50.908;6.974;2024-03-22T02:20:59;14.47;;;10.23;;
8230;SDS011;4156;50.908;6.974;2024-03-22T02:23:32;15.53;;;11.60;;
8230;SDS011;4156;50.908;6.974;2024-03-22T02:25:58;16.07;;;10.90;;
8230;SDS011;4156;50.908;6.974;2024-03-22T02:28:24;13.53;;;10.13;;
8230;SDS011;4156;50.908;6.974;2024-03-22T02:30:50;14.57;;;10.23;;
8230;SDS011;4156;50.908;6.974;2024-03-22T02:33:16;15.90;;;10.60;;
8230;SDS011;4156;50.908;6.974;2024-03-22T02:35:42;12.67;;;8.67;;
8230;SDS011;4156;50.908;6.974;2024-03-22T02:38:08;15.63;;;10.60;;
8230;SDS011;4156;50.908;6.974;2024-03-22T02:40:34;13.47;;;10.13;;
8230;SDS011;4156;50.908;6.974;2024-03-22T02:43:00;15.97;;;9.63;;
8230;SDS011;4156;50.908;6.974;2024-03-22T02:45:26;14.77;;;10.50;;
8230;SDS011;4156;50.908;6.974;2024-03-22T02:47:52;14.40;;;9.63;;
8230;SDS011;4156;50.908;6.974;2024-03-22T02:50:18;14.40;;;10.70;;
8230;SDS011;4156;50.908;6.974;2024-03-22T02:52:44;12.70;;;10.07;;
8230;SDS011;4156;50.908;6.974;2024-03-22T02:55:10;14.63;;;10.63;;
8230;SDS011;4156;50.908;6.974;2024-03-22T02:57:36;17.00;;;11.10;;
8230;SDS011;4156;50.908;6.974;2024-03-22T03:00:02;13.50;;;9.53;;
8230;SDS011;4156;50.908;6.974;2024-03-22T03:02:30;15.90;;;10.57;;
8230;SDS011;4156;50.908;6.974;2024-03-22T03:04:55;13.27;;;9.63;;
8230;SDS011;4156;50.908;6.974;2024-03-22T03:07:22;12.20;;;8.97;;
8230;SDS011;4156;50.908;6.974;2024-03-22T03:09:48;13.13;;;9.37;;
8230;SDS011;4156;50.908;6.974;2024-03-22T03:12:14;14.60;;;10.57;;
8230;SDS011;4156;50.908;6.974;2024-03-22T03:14:40;13.80;;;10.07;;
8230;SDS011;4156;50.908;6.974;2024-03-22T03:17:06;15.03;;;9.83;;
8230;SDS011;4156;50.908;6.974;2024-03-22T03:19:33;13.03;;;9.43;;
8230;SDS011;4156;50.908;6.974;2024-03-22T03:21:59;13.77;;;9.63;;
8230;SDS011;4156;50.908;6.974;2024-03-22T03:24:25;12.40;;;8.93;;
8230;SDS011;4156;50.908;6.974;2024-03-22T03:26:51;12.63;;;10.03;;
8230;SDS011;4156;50.908;6.974;2024-03-22T03:29:17;15.53;;;9.83;;
8230;SDS011;4156;50.908;6.974;2024-03-22T03:31:43;11.67;;;9.33;;
8230;SDS011;4156;50.908;6.974;2024-03-22T03:34:09;14.83;;;10.30;;
8230;SDS011;4156;50.908;6.974;2024-03-22T03:36:35;14.63;;;9.57;;
8230;SDS011;4156;50.908;6.974;2024-03-22T03:39:01;13.00;;;9.73;;
8230;SDS011;4156;50.908;6.974;2024-03-22T03:41:27;13.93;;;9.33;;
8230;SDS011;4156;50.908;6.974;2024-03-22T03:43:53;13.00;;;9.43;;
8230;SDS011;4156;50.908;6.974;2024-03-22T03:46:19;15.20;;;10.03;;
8230;SDS011;4156;50.908;6.974;2024-03-22T03:48:45;14.30;;;10.43;;
8230;SDS011;4156;50.908;6.974;2024-03-22T03:51:11;14.30;;;9.37;;
8230;SDS011;4156;50.908;6.974;2024-03-22T03:53:37;12.67;;;9.33;;
8230;SDS011;4156;50.908;6.974;2024-03-22T03:56:03;12.03;;;8.67;;
8230;SDS011;4156;50.908;6.974;2024-03-22T03:58:29;13.10;;;8.87;;
8230;SDS011;4156;50.908;6.974;2024-03-22T04:00:55;13.20;;;9.20;;
8230;SDS011;4156;50.908;6.974;2024-03-22T04:03:21;9.73;;;7.97;;
8230;SDS011;4156;50.908;6.974;2024-03-22T04:05:55;14.63;;;9.60;;
8230;SDS011;4156;50.908;6.974;2024-03-22T04:08:21;13.87;;;9.23;;
8230;SDS011;4156;50.908;6.974;2024-03-22T04:10:53;10.80;;;8.83;;
8230;SDS011;4156;50.908;6.974;2024-03-22T04:13:25;12.70;;;9.47;;
8230;SDS011;4156;50.908;6.974;2024-03-22T04:15:52;13.40;;;9.07;;
8230;SDS011;4156;50.908;6.974;2024-03-22T04:18:18;13.47;;;8.57;;
8230;SDS011;4156;50.908;6.974;2024-03-22T04:20:56;11.33;;;8.27;;
8230;SDS011;4156;50.908;6.974;2024-03-22T04:23:24;11.43;;;8.57;;
8230;SDS011;4156;50.908;6.974;2024-03-22T04:25:54;13.77;;;9.07;;
8230;SDS011;4156;50.908;6.974;2024-03-22T04:28:20;12.77;;;9.23;;
8230;SDS011;4156;50.908;6.974;2024-03-22T04:30:55;8.90;;;7.23;;
8230;SDS011;4156;50.908;6.974;2024-03-22T04:33:21;15.03;;;8.20;;
8230;SDS011;4156;50.908;6.974;2024-03-22T04:35:48;15.33;;;9.63;;
8230;SDS011;4156;50.908;6.974;2024-03-22T04:38:14;12.90;;;9.00;;
8230;SDS011;4156;50.908;6.974;2024-03-22T04:40:40;12.07;;;8.73;;
8230;SDS011;4156;50.908;6.974;2024-03-22T04:43:06;15.37;;;8.73;;
8230;SDS011;4156;50.908;6.974;2024-03-22T04:45:32;15.30;;;8.47;;
8230;SDS011;4156;50.908;6.974;2024-03-22T04:47:58;13.30;;;8.77;;
8230;SDS011;4156;50.908;6.974;2024-03-22T04:50:24;14.13;;;9.70;;
8230;SDS011;4156;50.908;6.974;2024-03-22T04:52:50;10.23;;;7.23;;
8230;SDS011;4156;50.908;6.974;2024-03-22T04:55:16;11.97;;;8.20;;
8230;SDS011;4156;50.908;6.974;2024-03-22T04:57:42;10.13;;;7.43;;
8230;SDS011;4156;50.908;6.974;2024-03-22T05:00:08;13.07;;;8.33;;
8230;SDS011;4156;50.908;6.974;2024-03-22T05:02:34;13.10;;;8.27;;
8230;SDS011;4156;50.908;6.974;2024-03-22T05:05:00;13.07;;;7.70;;
8230;SDS011;4156;50.908;6.974;2024-03-22T05:07:26;12.30;;;7.83;;
8230;SDS011;4156;50.908;6.974;2024-03-22T05:09:52;11.47;;;7.70;;
8230;SDS011;4156;50.908;6.974;2024-03-22T05:12:18;12.03;;;8.70;;
8230;SDS011;4156;50.908;6.974;2024-03-22T05:14:44;10.20;;;7.13;;
8230;SDS011;4156;50.908;6.974;2024-03-22T05:17:10;9.47;;;7.03;;
8230;SDS011;4156;50.908;6.974;2024-03-22T05:19:36;12.40;;;7.83;;
8230;SDS011;4156;50.908;6.974;2024-03-22T05:22:02;10.60;;;7.93;;
8230;SDS011;4156;50.908;6.974;2024-03-22T05:24:28;7.57;;;6.40;;
8230;SDS011;4156;50.908;6.974;2024-03-22T05:26:54;9.40;;;7.17;;
8230;SDS011;4156;50.908;6.974;2024-03-22T05:29:20;16.20;;;8.90;;
8230;SDS011;4156;50.908;6.974;2024-03-22T05:31:46;12.53;;;8.07;;
8230;SDS011;4156;50.908;6.974;2024-03-22T05:34:13;10.93;;;7.70;;
8230;SDS011;4156;50.908;6.974;2024-03-22T05:36:39;8.47;;;6.23;;
8230;SDS011;4156;50.908;6.974;2024-03-22T05:39:05;12.03;;;7.60;;
8230;SDS011;4156;50.908;6.974;2024-03-22T05:41:31;13.20;;;7.73;;
8230;SDS011;4156;50.908;6.974;2024-03-22T05:43:57;8.60;;;6.57;;
8230;SDS011;4156;50.908;6.974;2024-03-22T05:46:23;10.30;;;7.03;;
8230;SDS011;4156;50.908;6.974;2024-03-22T05:48:49;8.43;;;6.40;;
8230;SDS011;4156;50.908;6.974;2024-03-22T05:51:17;12.33;;;7.27;;
8230;SDS011;4156;50.908;6.974;2024-03-22T05:53:43;9.10;;;5.87;;
8230;SDS011;4156;50.908;6.974;2024-03-22T05:56:09;13.13;;;7.67;;
8230;SDS011;4156;50.908;6.974;2024-03-22T05:58:35;11.90;;;8.10;;
8230;SDS011;4156;50.908;6.974;2024-03-22T06:01:01;8.13;;;6.30;;
8230;SDS011;4156;50.908;6.974;2024-03-22T06:03:28;13.27;;;7.40;;
8230;SDS011;4156;50.908;6.974;2024-03-22T06:05:54;12.37;;;7.67;;
8230;SDS011;4156;50.908;6.974;2024-03-22T06:08:24;8.10;;;6.47;;
8230;SDS011;4156;50.908;6.974;2024-03-22T06:10:50;9.80;;;7.53;;
8230;SDS011;4156;50.908;6.974;2024-03-22T06:13:16;10.13;;;7.13;;
8230;SDS011;4156;50.908;6.974;2024-03-22T06:15:43;10.93;;;7.40;;
8230;SDS011;4156;50.908;6.974;2024-03-22T06:18:12;11.07;;;8.00;;
8230;SDS011;4156;50.908;6.974;2024-03-22T06:20:38;11.43;;;8.23;;
8230;SDS011;4156;50.908;6.974;2024-03-22T06:23:03;10.30;;;7.80;;
8230;SDS011;4156;50.908;6.974;2024-03-22T06:25:29;10.67;;;7.10;;
8230;SDS011;4156;50.908;6.974;2024-03-22T06:27:55;11.03;;;8.27;;
8230;SDS011;4156;50.908;6.974;2024-03-22T06:30:21;15.77;;;8.20;;
8230;SDS011;4156;50.908;6.974;2024-03-22T06:32:47;13.07;;;7.67;;
8230;SDS011;4156;50.908;6.974;2024-03-22T06:35:13;10.30;;;7.43;;
8230;SDS011;4156;50.908;6.974;2024-03-22T06:37:40;12.50;;;8.33;;
8230;SDS011;4156;50.908;6.974;2024-03-22T06:40:07;12.27;;;7.97;;
8230;SDS011;4156;50.908;6.974;2024-03-22T06:42:33;12.87;;;7.90;;
8230;SDS011;4156;50.908;6.974;2024-03-22T06:44:59;11.57;;;7.30;;
8230;SDS011;4156;50.908;6.974;2024-03-22T06:47:25;12.40;;;8.17;;
8230;SDS011;4156;50.908;6.974;2024-03-22T06:49:51;11.97;;;7.37;;
8230;SDS011;4156;50.908;6.974;2024-03-22T06:52:17;10.47;;;8.40;;
8230;SDS011;4156;50.908;6.974;2024-03-22T06:54:44;11.13;;;8.73;;
8230;SDS011;4156;50.908;6.974;2024-03-22T06:57:10;13.37;;;8.30;;
8230;SDS011;4156;50.908;6.974;2024-03-22T06:59:36;10.67;;;8.13;;
8230;SDS011;4156;50.908;6.974;2024-03-22T07:02:02;11.10;;;8.30;;
8230;SDS011;4156;50.908;6.974;2024-03-22T07:04:28;14.20;;;8.47;;
8230;SDS011;4156;50.908;6.974;2024-03-22T07:06:54;13.17;;;8.53;;
8230;SDS011;4156;50.908;6.974;2024-03-22T07:09:20;11.20;;;8.00;;
8230;SDS011;4156;50.908;6.974;2024-03-22T07:11:47;11.57;;;7.83;;
8230;SDS011;4156;50.908;6.974;2024-03-22T07:14:13;12.73;;;8.60;;
8230;SDS011;4156;50.908;6.974;2024-03-22T07:16:38;12.60;;;8.07;;
8230;SDS011;4156;50.908;6.974;2024-03-22T07:19:04;11.87;;;8.50;;
8230;SDS011;4156;50.908;6.974;2024-03-22T07:21:30;11.17;;;8.10;;
8230;SDS011;4156;50.908;6.974;2024-03-22T07:23:56;12.33;;;7.83;;
8230;SDS011;4156;50.908;6.974;2024-03-22T07:26:22;18.30;;;9.70;;
8230;SDS011;4156;50.908;6.974;2024-03-22T07:28:48;11.00;;;8.20;;
8230;SDS011;4156;50.908;6.974;2024-03-22T07:31:14;12.37;;;7.90;;
8230;SDS011;4156;50.908;6.974;2024-03-22T07:33:40;13.27;;;8.90;;
8230;SDS011;4156;50.908;6.974;2024-03-22T07:36:06;12.20;;;8.27;;
8230;SDS011;4156;50.908;6.974;2024-03-22T07:38:32;12.77;;;8.27;;
8230;SDS011;4156;50.908;6.974;2024-03-22T07:40:58;14.17;;;9.07;;
8230;SDS011;4156;50.908;6.974;2024-03-22T07:43:24;13.40;;;8.27;;
8230;SDS011;4156;50.908;6.974;2024-03-22T07:45:50;15.07;;;8.67;;
8230;SDS011;4156;50.908;6.974;2024-03-22T07:48:16;13.07;;;8.33;;
8230;SDS011;4156;50.908;6.974;2024-03-22T07:50:42;12.47;;;10.20;;
8230;SDS011;4156;50.908;6.974;2024-03-22T07:53:08;11.80;;;9.17;;
8230;SDS011;4156;50.908;6.974;2024-03-22T07:55:35;14.43;;;9.90;;
8230;SDS011;4156;50.908;6.974;2024-03-22T07:58:01;12.67;;;9.00;;
8230;SDS011;4156;50.908;6.974;2024-03-22T08:00:27;13.63;;;9.23;;
8230;SDS011;4156;50.908;6.974;2024-03-22T08:02:53;14.17;;;9.47;;
8230;SDS011;4156;50.908;6.974;2024-03-22T08:05:19;18.27;;;9.50;;
8230;SDS011;4156;50.908;6.974;2024-03-22T08:07:46;11.43;;;8.83;;
8230;SDS011;4156;50.908;6.974;2024-03-22T08:10:12;17.30;;;9.03;;
8230;SDS011;4156;50.908;6.974;2024-03-22T08:12:40;13.53;;;8.60;;
8230;SDS011;4156;50.908;6.974;2024-03-22T08:15:07;13.67;;;9.33;;
8230;SDS011;4156;50.908;6.974;2024-03-22T08:17:33;13.93;;;9.17;;
8230;SDS011;4156;50.908;6.974;2024-03-22T08:19:59;12.63;;;8.77;;
8230;SDS011;4156;50.908;6.974;2024-03-22T08:22:25;16.40;;;9.20;;
8230;SDS011;4156;50.908;6.974;2024-03-22T08:24:51;15.63;;;9.50;;
8230;SDS011;4156;50.908;6.974;2024-03-22T08:27:17;13.20;;;9.30;;
8230;SDS011;4156;50.908;6.974;2024-03-22T08:29:43;13.60;;;9.30;;
8230;SDS011;4156;50.908;6.974;2024-03-22T08:32:09;12.17;;;9.10;;
8230;SDS011;4156;50.908;6.974;2024-03-22T08:34:35;12.63;;;8.73;;
8230;SDS011;4156;50.908;6.974;2024-03-22T08:37:01;18.03;;;10.07;;
8230;SDS011;4156;50.908;6.974;2024-03-22T08:39:28;16.20;;;10.10;;
8230;SDS011;4156;50.908;6.974;2024-03-22T08:41:55;16.43;;;10.27;;
8230;SDS011;4156;50.908;6.974;2024-03-22T08:44:21;18.60;;;11.57;;
8230;SDS011;4156;50.908;6.974;2024-03-22T08:46:47;16.07;;;10.47;;
8230;SDS011;4156;50.908;6.974;2024-03-22T08:49:14;17.00;;;10.27;;
8230;SDS011;4156;50.908;6.974;2024-03-22T08:51:40;17.57;;;10.90;;
8230;SDS011;4156;50.908;6.974;2024-03-22T08:54:06;13.40;;;9.63;;
8230;SDS011;4156;50.908;6.974;2024-03-22T08:56:32;17.33;;;10.10;;
8230;SDS011;4156;50.908;6.974;2024-03-22T08:58:59;13.07;;;9.47;;
8230;SDS011;4156;50.908;6.974;2024-03-22T09:01:25;15.03;;;10.80;;
8230;SDS011;4156;50.908;6.974;2024-03-22T09:03:51;17.90;;;10.33;;
8230;SDS011;4156;50.908;6.974;2024-03-22T09:06:17;15.40;;;10.70;;
8230;SDS011;4156;50.908;6.974;2024-03-22T09:08:44;15.90;;;9.67;;
8230;SDS011;4156;50.908;6.974;2024-03-22T09:11:11;13.57;;;9.40;;
8230;SDS011;4156;50.908;6.974;2024-03-22T09:13:37;13.57;;;9.40;;
8230;SDS011;4156;50.908;6.974;2024-03-22T09:16:03;12.83;;;9.60;;
8230;SDS011;4156;50.908;6.974;2024-03-22T09:18:29;15.87;;;9.70;;
8230;SDS011;4156;50.908;6.974;2024-03-22T09:20:56;14.03;;;8.63;;
8230;SDS011;4156;50.908;6.974;2024-03-22T09:23:22;14.80;;;9.27;;
8230;SDS011;4156;50.908;6.974;2024-03-22T09:25:48;19.13;;;8.30;;
8230;SDS011;4156;50.908;6.974;2024-03-22T09:28:14;12.70;;;8.93;;
8230;SDS011;4156;50.908;6.974;2024-03-22T09:30:40;12.97;;;8.20;;
8230;SDS011;4156;50.908;6.974;2024-03-22T09:33:08;12.87;;;7.13;;
8230;SDS011;4156;50.908;6.974;2024-03-22T09:35:34;11.13;;;7.10;;
8230;SDS011;4156;50.908;6.974;2024-03-22T09:38:00;6.67;;;5.57;;
8230;SDS011;4156;50.908;6.974;2024-03-22T09:40:27;10.23;;;6.17;;
8230;SDS011;4156;50.908;6.974;2024-03-22T09:42:53;9.27;;;5.20;;
8230;SDS011;4156;50.908;6.974;2024-03-22T09:45:19;8.97;;;4.70;;
8230;SDS011;4156;50.908;6.974;2024-03-22T09:47:46;9.03;;;4.80;;
8230;SDS011;4156;50.908;6.974;2024-03-22T09:50:13;8.03;;;4.67;;
8230;SDS011;4156;50.908;6.974;2024-03-22T09:52:40;6.33;;;4.30;;
8230;SDS011;4156;50.908;6.974;2024-03-22T09:55:07;8.67;;;4.37;;
8230;SDS011;4156;50.908;6.974;2024-03-22T09:57:37;6.53;;;4.60;;
8230;SDS011;4156;50.908;6.974;2024-03-22T10:00:07;7.53;;;4.50;;
8230;SDS011;4156;50.908;6.974;2024-03-22T10:02:33;8.30;;;4.50;;
8230;SDS011;4156;50.908;6.974;2024-03-22T10:04:59;9.53;;;4.67;;
8230;SDS011;4156;50.908;6.974;2024-03-22T10:07:27;8.27;;;5.13;;
8230;SDS011;4156;50.908;6.974;2024-03-22T10:09:53;5.87;;;4.57;;
8230;SDS011;4156;50.908;6.974;2024-03-22T10:12:19;8.50;;;4.80;;
8230;SDS011;4156;50.908;6.974;2024-03-22T10:14:45;9.17;;;4.80;;
8230;SDS011;4156;50.908;6.974;2024-03-22T10:17:11;7.67;;;4.80;;
8230;SDS011;4156;50.908;6.974;2024-03-22T10:19:37;7.23;;;4.83;;
8230;SDS011;4156;50.908;6.974;2024-03-22T10:22:05;7.97;;;4.93;;
8230;SDS011;4156;50.908;6.974;2024-03-22T10:24:31;6.07;;;4.63;;
8230;SDS011;4156;50.908;6.974;2024-03-22T10:27:00;5.77;;;4.50;;
8230;SDS011;4156;50.908;6.974;2024-03-22T10:29:26;7.73;;;5.10;;
8230;SDS011;4156;50.908;6.974;2024-03-22T10:31:53;7.50;;;4.27;;
8230;SDS011;4156;50.908;6.974;2024-03-22T10:34:22;7.37;;;4.67;;
8230;SDS011;4156;50.908;6.974;2024-03-22T10:36:50;7.33;;;4.57;;
8230;SDS011;4156;50.908;6.974;2024-03-22T10:39:17;5.43;;;4.13;;
8230;SDS011;4156;50.908;6.974;2024-03-22T10:41:46;6.90;;;5.03;;
8230;SDS011;4156;50.908;6.974;2024-03-22T10:44:13;6.00;;;4.53;;
8230;SDS011;4156;50.908;6.974;2024-03-22T10:46:39;5.80;;;4.50;;
8230;SDS011;4156;50.908;6.974;2024-03-22T10:49:06;6.37;;;4.30;;
8230;SDS011;4156;50.908;6.974;2024-03-22T10:51:32;5.47;;;4.13;;
8230;SDS011;4156;50.908;6.974;2024-03-22T10:54:00;8.47;;;4.40;;
8230;SDS011;4156;50.908;6.974;2024-03-22T10:56:28;11.13;;;4.70;;
8230;SDS011;4156;50.908;6.974;2024-03-22T10:58:54;8.20;;;4.30;;
8230;SDS011;4156;50.908;6.974;2024-03-22T11:01:24;5.47;;;3.90;;
8230;SDS011;4156;50.908;6.974;2024-03-22T11:03:50;8.27;;;4.07;;
8230;SDS011;4156;50.908;6.974;2024-03-22T11:06:19;4.77;;;3.50;;
8230;SDS011;4156;50.908;6.974;2024-03-22T11:08:49;8.43;;;4.90;;
8230;SDS011;4156;50.908;6.974;2024-03-22T11:11:17;6.63;;;4.47;;
8230;SDS011;4156;50.908;6.974;2024-03-22T11:13:46;7.00;;;4.33;;
8230;SDS011;4156;50.908;6.974;2024-03-22T11:16:12;5.67;;;4.00;;
8230;SDS011;4156;50.908;6.974;2024-03-22T11:18:39;6.57;;;4.40;;
8230;SDS011;4156;50.908;6.974;2024-03-22T11:21:05;8.60;;;4.90;;
8230;SDS011;4156;50.908;6.974;2024-03-22T11:23:33;6.50;;;4.60;;
8230;SDS011;4156;50.908;6.974;2024-03-22T11:25:59;5.63;;;4.10;;
8230;SDS011;4156;50.908;6.974;2024-03-22T11:28:26;8.53;;;4.50;;
8230;SDS011;4156;50.908;6.974;2024-03-22T11:30:52;9.57;;;4.87;;
8230;SDS011;4156;50.908;6.974;2024-03-22T11:33:18;7.77;;;4.97;;
8230;SDS011;4156;50.908;6.974;2024-03-22T11:35:44;8.30;;;5.93;;
8230;SDS011;4156;50.908;6.974;2024-03-22T11:38:10;6.07;;;4.73;;
8230;SDS011;4156;50.908;6.974;2024-03-22T11:40:36;8.20;;;5.67;;
8230;SDS011;4156;50.908;6.974;2024-03-22T11:43:02;8.60;;;5.20;;
8230;SDS011;4156;50.908;6.974;2024-03-22T11:45:29;7.00;;;5.07;;
8230;SDS011;4156;50.908;6.974;2024-03-22T11:48:01;7.80;;;5.60;;
8230;SDS011;4156;50.908;6.974;2024-03-22T11:50:27;8.60;;;6.60;;
8230;SDS011;4156;50.908;6.974;2024-03-22T11:52:53;7.50;;;5.30;;
8230;SDS011;4156;50.908;6.974;2024-03-22T11:55:19;7.43;;;5.10;;
8230;SDS011;4156;50.908;6.974;2024-03-22T11:57:48;8.67;;;5.40;;
8230;SDS011;4156;50.908;6.974;2024-03-22T12:00:15;9.97;;;6.13;;
8230;SDS011;4156;50.908;6.974;2024-03-22T12:02:41;7.67;;;5.30;;
8230;SDS011;4156;50.908;6.974;2024-03-22T12:05:07;9.00;;;6.17;;
8230;SDS011;4156;50.908;6.974;2024-03-22T12:07:33;7.87;;;5.67;;
8230;SDS011;4156;50.908;6.974;2024-03-22T12:10:00;10.17;;;6.33;;
8230;SDS011;4156;50.908;6.974;2024-03-22T12:12:26;11.93;;;5.90;;
8230;SDS011;4156;50.908;6.974;2024-03-22T12:14:52;10.10;;;5.50;;
8230;SDS011;4156;50.908;6.974;2024-03-22T12:17:18;9.23;;;5.97;;
8230;SDS011;4156;50.908;6.974;2024-03-22T12:19:44;9.00;;;5.90;;
8230;SDS011;4156;50.908;6.974;2024-03-22T12:22:10;11.37;;;6.40;;
8230;SDS011;4156;50.908;6.974;2024-03-22T12:24:36;12.97;;;6.23;;
8230;SDS011;4156;50.908;6.974;2024-03-22T12:27:02;7.73;;;5.27;;
8230;SDS011;4156;50.908;6.974;2024-03-22T12:29:29;8.33;;;5.70;;
8230;SDS011;4156;50.908;6.974;2024-03-22T12:31:57;7.73;;;5.10;;
8230;SDS011;4156;50.908;6.974;2024-03-22T12:34:26;7.60;;;6.13;;
8230;SDS011;4156;50.908;6.974;2024-03-22T12:36:52;9.07;;;6.17;;
8230;SDS011;4156;50.908;6.974;2024-03-22T12:39:18;11.67;;;5.63;;
8230;SDS011;4156;50.908;6.974;2024-03-22T12:41:44;8.10;;;5.70;;
8230;SDS011;4156;50.908;6.974;2024-03-22T12:44:10;9.83;;;5.87;;
8230;SDS011;4156;50.908;6.974;2024-03-22T12:46:36;9.90;;;6.50;;
8230;SDS011;4156;50.908;6.974;2024-03-22T12:49:02;7.87;;;5.43;;
8230;SDS011;4156;50.908;6.974;2024-03-22T12:51:28;9.00;;;6.10;;
8230;SDS011;4156;50.908;6.974;2024-03-22T12:53:54;8.13;;;6.00;;
8230;SDS011;4156;50.908;6.974;2024-03-22T12:56:20;7.30;;;5.33;;
8230;SDS011;4156;50.908;6.974;2024-03-22T12:58:46;9.83;;;5.73;;
8230;SDS011;4156;50.908;6.974;2024-03-22T13:01:13;8.77;;;5.90;;
8230;SDS011;4156;50.908;6.974;2024-03-22T13:03:39;7.47;;;6.03;;
8230;SDS011;4156;50.908;6.974;2024-03-22T13:06:05;7.30;;;5.50;;
8230;SDS011;4156;50.908;6.974;2024-03-22T13:08:32;9.43;;;6.07;;
8230;SDS011;4156;50.908;6.974;2024-03-22T13:10:58;6.60;;;5.33;;
8230;SDS011;4156;50.908;6.974;2024-03-22T13:13:24;8.37;;;5.70;;
8230;SDS011;4156;50.908;6.974;2024-03-22T13:15:50;10.07;;;6.33;;
8230;SDS011;4156;50.908;6.974;2024-03-22T13:18:16;8.70;;;6.07;;
8230;SDS011;4156;50.908;6.974;2024-03-22T13:20:42;9.67;;;6.20;;
8230;SDS011;4156;50.908;6.974;2024-03-22T13:23:08;7.63;;;5.17;;
8230;SDS011;4156;50.908;6.974;2024-03-22T13:25:36;7.57;;;5.27;;
8230;SDS011;4156;50.908;6.974;2024-03-22T13:28:03;9.07;;;5.23;;
8230;SDS011;4156;50.908;6.974;2024-03-22T13:30:30;7.57;;;5.40;;
8230;SDS011;4156;50.908;6.974;2024-03-22T13:32:56;7.67;;;5.57;;
8230;SDS011;4156;50.908;6.974;2024-03-22T13:35:22;7.63;;;5.30;;
8230;SDS011;4156;50.908;6.974;2024-03-22T13:37:48;7.83;;;5.23;;
8230;SDS011;4156;50.908;6.974;2024-03-22T13:40:14;8.60;;;5.20;;
8230;SDS011;4156;50.908;6.974;2024-03-22T13:42:40;8.07;;;5.63;;
8230;SDS011;4156;50.908;6.974;2024-03-22T13:45:06;7.37;;;4.93;;
8230;SDS011;4156;50.908;6.974;2024-03-22T13:47:32;10.40;;;4.87;;
8230;SDS011;4156;50.908;6.974;2024-03-22T13:49:58;8.23;;;5.90;;
8230;SDS011;4156;50.908;6.974;2024-03-22T13:52:24;7.57;;;5.77;;
8230;SDS011;4156;50.908;6.974;2024-03-22T13:54:50;8.80;;;5.80;;
8230;SDS011;4156;50.908;6.974;2024-03-22T13:57:16;7.23;;;5.33;;
8230;SDS011;4156;50.908;6.974;2024-03-22T13:59:42;9.03;;;5.70;;
8230;SDS011;4156;50.908;6.974;2024-03-22T14:02:09;8.30;;;5.27;;
8230;SDS011;4156;50.908;6.974;2024-03-22T14:04:35;7.37;;;5.73;;
8230;SDS011;4156;50.908;6.974;2024-03-22T14:07:01;9.40;;;6.43;;
8230;SDS011;4156;50.908;6.974;2024-03-22T14:09:31;10.20;;;5.67;;
8230;SDS011;4156;50.908;6.974;2024-03-22T14:11:57;9.03;;;5.90;;
8230;SDS011;4156;50.908;6.974;2024-03-22T14:14:24;9.33;;;7.13;;
8230;SDS011;4156;50.908;6.974;2024-03-22T14:16:51;11.17;;;6.47;;
8230;SDS011;4156;50.908;6.974;2024-03-22T14:19:17;11.73;;;6.93;;
8230;SDS011;4156;50.908;6.974;2024-03-22T14:21:44;10.23;;;7.03;;
8230;SDS011;4156;50.908;6.974;2024-03-22T14:24:11;10.40;;;6.63;;
8230;SDS011;4156;50.908;6.974;2024-03-22T14:26:37;9.50;;;6.53;;
8230;SDS011;4156;50.908;6.974;2024-03-22T14:29:07;11.77;;;6.70;;
8230;SDS011;4156;50.908;6.974;2024-03-22T14:31:33;9.93;;;6.17;;
8230;SDS011;4156;50.908;6.974;2024-03-22T14:33:59;10.03;;;6.10;;
8230;SDS011;4156;50.908;6.974;2024-03-22T14:36:26;9.53;;;5.80;;
8230;SDS011;4156;50.908;6.974;2024-03-22T14:38:51;8.73;;;6.10;;
8230;SDS011;4156;50.908;6.974;2024-03-22T14:41:18;9.97;;;6.00;;
8230;SDS011;4156;50.908;6.974;2024-03-22T14:43:43;7.03;;;6.07;;
8230;SDS011;4156;50.908;6.974;2024-03-22T14:46:09;11.97;;;7.50;;
8230;SDS011;4156;50.908;6.974;2024-03-22T14:48:35;11.03;;;7.13;;
8230;SDS011;4156;50.908;6.974;2024-03-22T14:51:01;8.43;;;6.70;;
8230;SDS011;4156;50.908;6.974;2024-03-22T14:53:27;8.70;;;6.03;;
8230;SDS011;4156;50.908;6.974;2024-03-22T14:58:22;9.73;;;6.40;;
8230;SDS011;4156;50.908;6.974;2024-03-22T15:00:52;9.00;;;6.03;;